Time;durP1;ratioP1;P1;durP2;ratioP2;P2;SDS_P1;SDS_P2;PMS_P1;PMS_P2;Temp;Humidity;BMP_temperature;BMP_pressure;BME280_temperature;BME280_humidity;BME280_pressure;Samples;Min_cycle;Max_cycle;Signal;HPM_P1;HPM_P2
2023/10/18 00:01:01;;;;;;;2.17;0.60;;;;;;;;;;6082087;23;20011;-70
2023/10/18 00:03:31;;;;;;;0.60;0.60;;;18.80;75.80;;;;;;6105688;23;20077;-70
2023/10/18 00:06:35;;;;;;;0.63;0.60;;;18.70;80.90;;;;;;6082037;23;20007;-72
2023/10/18 00:08:57;;;;;;;0.63;0.63;;;;;;;;;;6074031;23;20022;-72
2023/10/18 00:11:27;;;;;;;0.93;0.50;;;18.80;78.30;;;;;;6105864;23;20081;-72
2023/10/18 00:13:54;;;;;;;1.63;0.60;;;;;;;;;;6082616;23;20013;-72
2023/10/18 00:16:23;;;;;;;0.50;0.50;;;18.70;81.40;;;;;;6105770;23;20010;-72
2023/10/18 00:18:49;;;;;;;0.60;0.60;;;;;;;;;;6081526;23;20338;-72
2023/10/18 00:21:16;;;;;;;0.60;0.50;;;;;;;;;;6105695;23;20007;-72
2023/10/18 00:23:44;;;;;;;0.80;0.60;;;;;;;;;;6106321;23;19998;-70
2023/10/18 00:26:11;;;;;;;0.43;0.43;;;18.70;78.40;;;;;;6105737;23;20085;-70
2023/10/18 00:28:38;;;;;;;0.60;0.50;;;;;;;;;;6072196;23;20006;-70
2023/10/18 00:31:10;;;;;;;1.15;0.73;;;18.70;75.90;;;;;;6105781;23;20394;-70
2023/10/18 00:33:38;;;;;;;0.93;0.60;;;;;;;;;;6107139;23;20370;-72
2023/10/18 00:36:04;;;;;;;1.58;0.70;;;;;;;;;;6105707;23;20013;-72
2023/10/18 00:38:30;;;;;;;0.70;0.52;;;;;;;;;;6095868;23;20003;-72
2023/10/18 00:40:56;;;;;;;0.63;0.50;;;;;;;;;;6095055;23;20330;-71
2023/10/18 00:43:26;;;;;;;1.00;0.50;;;;;;;;;;6105629;23;20003;-71
2023/10/18 00:45:53;;;;;;;0.88;0.70;;;18.60;79.90;;;;;;6096224;23;20315;-72
2023/10/18 00:48:26;;;;;;;0.77;0.50;;;18.70;81.30;;;;;;6081777;23;20021;-72
2023/10/18 00:50:54;;;;;;;0.88;0.70;;;18.50;79.30;;;;;;6083337;23;20389;-70
2023/10/18 00:53:22;;;;;;;0.68;0.68;;;;;;;;;;6081832;23;20002;-70
2023/10/18 00:55:52;;;;;;;0.47;0.47;;;18.50;80.10;;;;;;6105384;23;20002;-70
2023/10/18 00:58:19;;;;;;;1.05;0.50;;;;;;;;;;6082140;23;20005;-70
2023/10/18 01:00:45;;;;;;;0.65;0.50;;;;;;;;;;6095935;23;20338;-69
2023/10/18 01:03:28;;;;;;;0.73;0.57;;;;;;;;;;6105059;23;20183;-69
2023/10/18 01:06:08;;;;;;;0.98;0.60;;;18.60;76.10;;;;;;6095856;23;20500;-71
2023/10/18 01:08:38;;;;;;;;;;;18.60;82.00;;;;;;6072678;23;20093;-69
2023/10/18 01:11:10;;;;;;;1.00;0.70;;;18.50;76.20;;;;;;6095811;23;19920;-70
2023/10/18 01:13:42;;;;;;;0.50;0.50;;;18.60;81.50;;;;;;6095558;23;20426;-70
2023/10/18 01:16:34;;;;;;;0.60;0.55;;;18.50;81.50;;;;;;6072836;23;20506;-69
2023/10/18 01:19:08;;;;;;;0.57;0.57;;;18.60;76.50;;;;;;6075165;23;20090;-69
2023/10/18 01:21:35;;;;;;;0.80;0.60;;;;;;;;;;6073177;23;20029;-69
2023/10/18 01:24:01;;;;;;;1.08;0.65;;;;;;;;;;6095724;23;20006;-69
2023/10/18 01:26:30;;;;;;;0.88;0.60;;;18.50;81.50;;;;;;6095504;23;20013;-69
2023/10/18 01:28:59;;;;;;;0.57;0.57;;;18.60;81.60;;;;;;6072218;23;20417;-69
2023/10/18 01:31:26;;;;;;;1.08;0.43;;;;;;;;;;6072500;23;20003;-71
2023/10/18 01:33:53;;;;;;;1.35;0.70;;;;;;;;;;6095564;23;20060;-71
2023/10/18 01:36:21;;;;;;;0.47;0.40;;;18.50;81.80;;;;;;6095673;23;20103;-71
2023/10/18 01:38:49;;;;;;;0.50;0.50;;;18.40;81.60;;;;;;6071473;23;20510;-71
2023/10/18 01:41:25;;;;;;;0.60;0.60;;;18.40;81.60;;;;;;6095163;23;20006;-71
2023/10/18 01:43:52;;;;;;;0.52;0.50;;;18.40;79.30;;;;;;6095709;23;20041;-71
2023/10/18 01:46:18;;;;;;;0.80;0.60;;;;;;;;;;6095387;23;20066;-71
2023/10/18 01:48:51;;;;;;;0.68;0.50;;;;;;;;;;6095692;23;20014;-69
2023/10/18 01:51:18;;;;;;;0.70;0.40;;;;;;;;;;6095166;23;20006;-69
2023/10/18 01:53:44;;;;;;;0.40;0.40;;;;;;;;;;6095444;23;20022;-69
2023/10/18 01:56:11;;;;;;;0.80;0.60;;;;;;;;;;6095391;23;20006;-69
2023/10/18 01:58:38;;;;;;;0.77;0.50;;;;;;;;;;6095028;23;20085;-69
2023/10/18 02:01:10;;;;;;;1.02;0.60;;;;;;;;;;6095306;23;20013;-69
2023/10/18 02:03:40;;;;;;;0.88;0.77;;;;;;;;;;6094868;23;20033;-69
2023/10/18 02:06:23;;;;;;;0.70;0.43;;;;;;;;;;6093373;23;20021;-70
2023/10/18 02:08:49;;;;;;;0.47;0.40;;;;;;;;;;6095211;23;20011;-69
2023/10/18 02:11:16;;;;;;;2.45;0.55;;;;;;;;;;6094956;23;20014;-69
2023/10/18 02:13:42;;;;;;;1.77;0.57;;;;;;;;;;6095191;23;20031;-71
2023/10/18 02:16:14;;;;;;;0.80;0.52;;;;;;;;;;6095636;23;20013;-71
2023/10/18 02:18:41;;;;;;;1.45;0.50;;;;;;;;;;6094921;23;20007;-71
2023/10/18 02:21:08;;;;;;;0.43;0.43;;;;;;;;;;6095812;23;20549;-71
2023/10/18 02:23:34;;;;;;;0.75;0.68;;;;;;;;;;6096184;23;20014;-71
2023/10/18 02:26:09;;;;;;;0.70;0.50;;;18.30;83.00;;;;;;6094809;23;20081;-71
2023/10/18 02:28:36;;;;;;;0.68;0.55;;;;;;;;;;6072943;23;20046;-71
2023/10/18 02:31:13;;;;;;;0.60;0.57;;;;;;;;;;6094792;23;20006;-71
2023/10/18 02:33:54;;;;;;;1.25;0.50;;;;;;;;;;6091963;23;20014;-73
2023/10/18 02:36:21;;;;;;;0.40;0.40;;;;;;;;;;6095024;23;20351;-73
2023/10/18 02:38:50;;;;;;;0.75;0.47;;;18.20;77.90;;;;;;6095019;23;20018;-72
2023/10/18 02:41:26;;;;;;;1.05;0.45;;;;;;;;;;6070856;23;20383;-72
2023/10/18 02:44:11;;;;;;;0.55;0.55;;;;;;;;;;6095787;23;20461;-73
2023/10/18 02:46:37;;;;;;;0.88;0.50;;;;;;;;;;6105030;23;20022;-73
2023/10/18 02:49:08;;;;;;;0.68;0.47;;;;;;;;;;6094660;23;20079;-73
2023/10/18 02:51:35;;;;;;;0.90;0.40;;;;;;;;;;6095099;23;20423;-73
2023/10/18 02:54:10;;;;;;;0.95;0.68;;;;;;;;;;6104358;23;20003;-73
2023/10/18 02:56:39;;;;;;;1.27;0.60;;;;;;;;;;6095126;23;20006;-71
2023/10/18 02:59:08;;;;;;;0.82;0.50;;;;;;;;;;6105817;23;19998;-71
2023/10/18 03:01:39;;;;;;;0.83;0.50;;;18.20;80.70;;;;;;6105693;23;20073;-71
2023/10/18 03:04:08;;;;;;;0.43;0.43;;;;;;;;;;6096283;23;20021;-71
2023/10/18 03:06:34;;;;;;;0.60;0.60;;;;;;;;;;6105591;23;20018;-71
2023/10/18 03:09:01;;;;;;;2.10;0.57;;;;;;;;;;6105673;23;20238;-71
2023/10/18 03:11:27;;;;;;;0.88;0.50;;;18.20;81.20;;;;;;6105689;23;20002;-71
2023/10/18 03:14:01;;;;;;;0.50;0.45;;;18.20;81.00;;;;;;6106281;23;20379;-71
2023/10/18 03:19:09;;;;;;;0.80;0.73;;;;;;;;;;6105775;23;20006;-71
2023/10/18 03:21:35;;;;;;;0.50;0.40;;;;;;;;;;6105637;23;19998;-71
2023/10/18 03:24:02;;;;;;;0.82;0.50;;;;;;;;;;6105631;23;20006;-70
2023/10/18 03:26:37;;;;;;;0.73;0.60;;;18.20;83.30;;;;;;6105490;23;20504;-71
2023/10/18 03:29:15;;;;;;;1.17;0.68;;;;;;;;;;6105789;23;20085;-71
2023/10/18 03:31:43;;;;;;;0.50;0.43;;;18.10;81.50;;;;;;6105508;23;19995;-71
2023/10/18 03:34:15;;;;;;;0.57;0.50;;;;;;;;;;6105629;23;20002;-71
2023/10/18 03:36:53;;;;;;;0.57;0.50;;;;;;;;;;6095782;23;20003;-71
2023/10/18 03:39:19;;;;;;;0.80;0.50;;;18.20;80.50;;;;;;6105524;23;19999;-71
2023/10/18 03:41:53;;;;;;;0.80;0.65;;;;;;;;;;6106060;23;19994;-72
2023/10/18 03:44:26;;;;;;;0.57;0.57;;;18.10;80.50;;;;;;6095726;23;20007;-73
2023/10/18 03:47:03;;;;;;;1.42;0.50;;;;;;;;;;6105491;23;20038;-73
2023/10/18 03:51:56;;;;;;;0.82;0.68;;;;;;;;;;6105393;23;20037;-71
2023/10/18 03:54:43;;;;;;;0.60;0.50;;;;;;;;;;6105408;23;20300;-69
2023/10/18 03:57:15;;;;;;;0.88;0.50;;;;;;;;;;6105363;23;19994;-69
2023/10/18 03:59:44;;;;;;;0.43;0.40;;;;;;;;;;6105323;23;20442;-70
2023/10/18 04:02:34;;;;;;;0.70;0.60;;;;;;;;;;6095673;23;20073;-70
2023/10/18 04:05:00;;;;;;;0.73;0.70;;;;;;;;;;6094950;23;20010;-70
2023/10/18 04:07:27;;;;;;;0.60;0.52;;;;;;;;;;6105294;23;20386;-70
2023/10/18 04:12:27;;;;;;;0.55;0.55;;;;;;;;;;6105623;23;20010;-70
2023/10/18 04:15:01;;;;;;;1.05;0.52;;;;;;;;;;6095848;23;20046;-70
2023/10/18 04:20:01;;;;;;;0.60;0.50;;;18.10;80.70;;;;;;6105351;23;20002;-70
2023/10/18 04:22:29;;;;;;;0.85;0.70;;;;;;;;;;6095441;23;20430;-72
2023/10/18 04:24:56;;;;;;;0.82;0.63;;;;;;;;;;6095826;23;20031;-72
2023/10/18 04:27:23;;;;;;;0.65;0.60;;;;;;;;;;6095735;23;20014;-72
2023/10/18 04:29:55;;;;;;;0.80;0.68;;;;;;;;;;6095741;23;20081;-72
2023/10/18 04:32:23;;;;;;;0.73;0.57;;;18.10;83.70;;;;;;6095807;23;20342;-72
2023/10/18 04:34:49;;;;;;;0.70;0.63;;;;;;;;;;6095414;23;20069;-71
2023/10/18 04:37:17;;;;;;;0.63;0.38;;;;;;;;;;6095352;23;20462;-72
2023/10/18 04:39:43;;;;;;;0.65;0.50;;;;;;;;;;6095696;23;19999;-71
2023/10/18 04:42:16;;;;;;;0.68;0.68;;;;;;;;;;6094211;23;20006;-71
2023/10/18 04:44:48;;;;;;;0.70;0.70;;;;;;;;;;6094175;23;20026;-72
2023/10/18 04:47:15;;;;;;;1.30;0.90;;;;;;;;;;6096972;23;20469;-71
2023/10/18 04:49:50;;;;;;;0.60;0.50;;;18.00;83.40;;;;;;6097565;23;19999;-71
2023/10/18 04:52:28;;;;;;;0.88;0.60;;;;;;;;;;6097713;23;20069;-72
2023/10/18 04:55:04;;;;;;;0.88;0.88;;;18.00;83.90;;;;;;6097588;23;20422;-71
2023/10/18 04:57:38;;;;;;;1.17;1.05;;;;;;;;;;6097522;23;20002;-71
2023/10/18 05:00:24;;;;;;;1.55;1.45;;;18.00;78.80;;;;;;6097568;23;20009;-71
2023/10/18 05:02:52;;;;;;;1.83;1.73;;;18.00;84.00;;;;;;6097021;23;20041;-71
2023/10/18 05:05:18;;;;;;;2.10;2.00;;;;;;;;;;6097388;23;20053;-71
2023/10/18 05:07:48;;;;;;;3.45;3.25;;;;;;;;;;6097115;23;20019;-69
2023/10/18 05:10:15;;;;;;;3.37;3.17;;;;;;;;;;6097381;23;20006;-71
2023/10/18 05:13:19;;;;;;;4.60;4.30;;;;;;;;;;6097256;23;20006;-71
2023/10/18 05:15:34;;;;;;;6.00;5.60;;;;;;;;;;6091413;23;20014;-72
2023/10/18 05:18:15;;;;;;;6.88;6.38;;;;;;;;;;6097279;23;20049;-72
2023/10/18 05:20:46;;;;;;;7.65;7.15;;;;;;;;;;6096899;23;20002;-72
2023/10/18 05:23:50;;;;;;;8.27;7.70;;;;;;;;;;6097095;23;20002;-71
2023/10/18 05:26:17;;;;;;;10.15;9.40;;;17.70;79.40;;;;;;6091828;23;20002;-71
2023/10/18 05:28:47;;;;;;;9.95;9.25;;;;;;;;;;6096675;23;20446;-71
2023/10/18 05:32:05;;;;;;;10.90;10.13;;;;;;;;;;6094506;23;20010;-72
2023/10/18 05:34:49;;;;;;;11.10;10.30;;;;;;;;;;6096469;23;20010;-70
2023/10/18 05:37:15;;;;;;;10.15;9.45;;;;;;;;;;6097040;23;20425;-74
2023/10/18 05:40:42;;;;;;;10.23;9.52;;;;;;;;;;6097014;23;20021;-72
2023/10/18 05:42:38;;;;;;;10.52;9.63;;;;;;;;;;6096420;23;20013;-72
2023/10/18 05:45:05;;;;;;;9.57;8.88;;;;;;;;;;6096581;23;20410;-71
2023/10/18 05:47:31;;;;;;;9.65;8.95;;;;;;;;;;6096828;23;20014;-72
2023/10/18 05:49:59;;;;;;;9.20;8.50;;;;;;;;;;6096688;23;20079;-71
2023/10/18 05:52:38;;;;;;;8.80;8.10;;;;;;;;;;6096838;23;20006;-71
2023/10/18 05:55:10;;;;;;;8.63;8.02;;;17.80;84.80;;;;;;6096820;23;20006;-70
2023/10/18 05:57:37;;;;;;;7.55;7.05;;;;;;;;;;6096072;23;19998;-73
2023/10/18 06:00:20;;;;;;;7.63;7.13;;;17.80;84.90;;;;;;6096606;23;20002;-72
2023/10/18 06:02:47;;;;;;;7.43;6.93;;;;;;;;;;6096208;23;20075;-71
2023/10/18 06:05:13;;;;;;;6.95;6.45;;;;;;;;;;6096258;23;20438;-71
2023/10/18 06:07:41;;;;;;;6.20;5.80;;;;;;;;;;6096486;23;20090;-72
2023/10/18 06:10:17;;;;;;;5.75;5.35;;;;;;;;;;6096718;23;20371;-73
2023/10/18 06:12:46;;;;;;;5.95;5.55;;;;;;;;;;6106344;23;20053;-73
2023/10/18 06:15:13;;;;;;;5.50;5.10;;;17.90;84.80;;;;;;6106144;23;20018;-73
2023/10/18 06:17:46;;;;;;;5.28;4.88;;;;;;;;;;6096505;23;20013;-72
2023/10/18 06:20:28;;;;;;;5.00;4.70;;;17.80;83.60;;;;;;6106310;23;20054;-72
2023/10/18 06:25:45;;;;;;;4.25;3.83;;;17.80;81.80;;;;;;6106392;23;20009;-72
2023/10/18 06:28:11;;;;;;;3.30;3.10;;;;;;;;;;6096395;23;20010;-72
2023/10/18 06:30:40;;;;;;;3.75;3.45;;;17.70;82.50;;;;;;6096502;23;20013;-72
2023/10/18 06:33:09;;;;;;;3.45;3.25;;;17.70;79.40;;;;;;6106085;23;20025;-71
2023/10/18 06:35:53;;;;;;;3.03;2.83;;;17.70;79.10;;;;;;6106265;23;20529;-70
2023/10/18 06:38:23;;;;;;;2.88;2.67;;;17.70;79.00;;;;;;6106111;23;20065;-70
2023/10/18 06:41:11;;;;;;;2.53;2.42;;;17.70;84.20;;;;;;6096651;23;20057;-70
2023/10/18 06:43:36;;;;;;;2.53;2.42;;;;;;;;;;6095707;23;20002;-69
2023/10/18 06:46:04;;;;;;;2.10;2.00;;;;;;;;;;6096499;23;20019;-69
2023/10/18 06:48:31;;;;;;;1.92;1.83;;;;;;;;;;6071642;23;20042;-69
2023/10/18 06:50:58;;;;;;;2.03;1.90;;;;;;;;;;6071442;23;20012;-72
2023/10/18 06:53:27;;;;;;;1.63;1.52;;;;;;;;;;6071275;23;20385;-70
2023/10/18 06:55:58;;;;;;;1.80;1.70;;;;;;;;;;6071806;23;20374;-71
2023/10/18 07:00:53;;;;;;;5.22;3.47;;;;;;;;;;6080487;23;20093;-73
2023/10/18 07:03:27;;;;;;;1.50;1.40;;;17.70;78.80;;;;;;6085262;23;20465;-68
2023/10/18 07:05:56;;;;;;;2.47;1.38;;;;;;;;;;6071600;23;19998;-69
2023/10/18 07:08:44;;;;;;;1.75;1.15;;;;;;;;;;6092700;23;20019;-71
2023/10/18 07:11:16;;;;;;;2.63;1.30;;;;;;;;;;6105803;23;20016;-69
2023/10/18 07:13:46;;;;;;;1.33;1.20;;;;;;;;;;6095813;23;20014;-69
2023/10/18 07:16:16;;;;;;;2.08;1.33;;;17.70;84.20;;;;;;6104434;23;20323;-70
2023/10/18 07:18:45;;;;;;;1.95;1.08;;;17.60;82.50;;;;;;6081073;23;20008;-70
2023/10/18 07:21:18;;;;;;;2.93;1.07;;;17.60;84.20;;;;;;6071910;23;20022;-71
2023/10/18 07:23:53;;;;;;;5.15;1.10;;;;;;;;;;6081079;23;20011;-69
2023/10/18 07:26:22;;;;;;;2.55;1.60;;;;;;;;;;6094891;23;20085;-69
2023/10/18 07:28:49;;;;;;;1.63;1.23;;;;;;;;;;6094048;23;20006;-69
2023/10/18 07:31:18;;;;;;;5.70;1.35;;;17.70;79.50;;;;;;6095970;23;20015;-70
2023/10/18 07:33:45;;;;;;;3.78;0.70;;;;;;;;;;6071128;23;20002;-69
2023/10/18 07:36:12;;;;;;;3.28;1.02;;;17.60;84.70;;;;;;6094804;23;20010;-69
2023/10/18 07:38:47;;;;;;;2.97;0.80;;;17.70;84.70;;;;;;6094829;23;20011;-70
2023/10/18 07:41:26;;;;;;;2.83;0.80;;;17.60;84.70;;;;;;6072382;23;20009;-69
2023/10/18 07:43:55;;;;;;;5.13;0.90;;;17.70;82.40;;;;;;6073026;23;20033;-70
2023/10/18 07:46:25;;;;;;;1.40;0.90;;;;;;;;;;6096157;23;19999;-69
2023/10/18 07:49:03;;;;;;;6.63;1.47;;;;;;;;;;6096386;23;20010;-72
2023/10/18 07:51:48;;;;;;;3.33;0.90;;;17.60;84.80;;;;;;6095586;23;20007;-72
2023/10/18 07:54:21;;;;;;;1.63;0.80;;;17.60;79.60;;;;;;6096242;23;20026;-72
2023/10/18 07:56:50;;;;;;;0.80;0.73;;;;;;;;;;6095793;23;19994;-72
2023/10/18 07:59:29;;;;;;;1.48;0.85;;;17.60;82.40;;;;;;6095931;23;20006;-71
2023/10/18 08:02:13;;;;;;;1.23;0.70;;;17.60;84.80;;;;;;6095847;23;20322;-71
2023/10/18 08:04:42;;;;;;;2.13;0.77;;;17.60;83.60;;;;;;6095741;23;20085;-71
2023/10/18 08:07:10;;;;;;;4.78;0.80;;;17.70;84.50;;;;;;6095979;23;20081;-71
2023/10/18 08:09:41;;;;;;;4.68;0.73;;;;;;;;;;6095598;23;19999;-71
2023/10/18 08:12:19;;;;;;;2.30;0.68;;;17.60;85.00;;;;;;6096082;23;20383;-71
2023/10/18 08:14:48;;;;;;;2.20;0.90;;;;;;;;;;6096080;23;20298;-70
2023/10/18 08:17:30;;;;;;;2.87;1.30;;;;;;;;;;6095954;23;20596;-71
2023/10/18 08:22:42;;;;;;;1.83;0.85;;;;;;;;;;6107430;23;20014;-71
2023/10/18 08:25:21;;;;;;;0.60;0.40;;;;;;;;;;6097922;23;20001;-71
2023/10/18 08:27:54;;;;;;;0.85;0.52;;;17.70;80.30;;;;;;6097848;23;20433;-71
2023/10/18 08:32:51;;;;;;;2.42;0.98;;;;;;;;;;6107619;23;20010;-70
2023/10/18 08:35:19;;;;;;;2.60;1.15;;;;;;;;;;6108735;23;20061;-70
2023/10/18 08:37:45;;;;;;;1.40;0.60;;;;;;;;;;6107433;23;20003;-72
2023/10/18 08:43:08;;;;;;;1.08;0.73;;;17.70;85.60;;;;;;6107239;23;20070;-72
2023/10/18 08:45:36;;;;;;;1.08;0.50;;;;;;;;;;6107226;23;20057;-72
2023/10/18 08:48:10;;;;;;;0.75;0.60;;;17.70;83.40;;;;;;6107090;23;20089;-72
2023/10/18 08:50:39;;;;;;;1.30;0.75;;;17.70;85.50;;;;;;6107118;23;20501;-72
2023/10/18 08:53:05;;;;;;;0.60;0.52;;;;;;;;;;6107255;23;20457;-72
2023/10/18 08:56:14;;;;;;;2.47;0.88;;;17.70;85.60;;;;;;6107162;23;20066;-72
2023/10/18 08:58:30;;;;;;;3.92;0.98;;;;;;;;;;6083204;23;20006;-72
2023/10/18 09:03:27;;;;;;;1.75;0.80;;;;;;;;;;6106878;23;20015;-71
2023/10/18 09:06:07;;;;;;;1.25;0.80;;;17.70;80.40;;;;;;6107091;23;20035;-71
2023/10/18 09:08:44;;;;;;;1.45;0.77;;;17.70;85.60;;;;;;6071741;23;20010;-71
2023/10/18 09:11:21;;;;;;;1.13;0.75;;;17.70;85.60;;;;;;6107095;23;19994;-74
2023/10/18 09:14:07;;;;;;;1.73;0.77;;;17.80;85.70;;;;;;6107223;23;20385;-77
2023/10/18 09:16:38;;;;;;;2.63;1.08;;;17.70;80.40;;;;;;6097548;23;20046;-71
2023/10/18 09:19:08;;;;;;;1.08;0.75;;;17.70;84.00;;;;;;6106905;23;20006;-73
2023/10/18 09:21:44;;;;;;;1.85;0.85;;;;;;;;;;6106976;23;20065;-72
2023/10/18 09:24:11;;;;;;;1.92;0.98;;;;;;;;;;6097548;23;20069;-72
2023/10/18 09:26:40;;;;;;;1.98;0.70;;;;;;;;;;6097199;23;20453;-72
2023/10/18 09:29:08;;;;;;;1.20;0.90;;;;;;;;;;6106830;23;20434;-73
2023/10/18 09:31:34;;;;;;;2.53;0.77;;;;;;;;;;6081553;23;20337;-70
2023/10/18 09:34:07;;;;;;;2.25;0.90;;;;;;;;;;6106759;23;20002;-70
2023/10/18 09:36:38;;;;;;;2.72;1.08;;;;;;;;;;6096981;23;20442;-70
2023/10/18 09:39:13;;;;;;;0.77;0.77;;;17.90;85.50;;;;;;6097392;23;20014;-69
2023/10/18 09:41:39;;;;;;;2.38;0.85;;;;;;;;;;6097291;23;19999;-69
2023/10/18 09:44:07;;;;;;;2.78;1.27;;;17.90;83.30;;;;;;6096935;23;20006;-70
2023/10/18 09:46:37;;;;;;;2.15;1.20;;;17.90;80.20;;;;;;6096804;23;20018;-69
2023/10/18 09:49:09;;;;;;;2.00;1.00;;;17.90;85.70;;;;;;6096834;23;20443;-69
2023/10/18 09:51:42;;;;;;;5.45;1.00;;;17.90;85.40;;;;;;6096793;23;19999;-69
2023/10/18 09:54:13;;;;;;;3.45;1.20;;;18.00;85.40;;;;;;6097082;23;19998;-69
2023/10/18 09:56:40;;;;;;;5.22;1.25;;;18.00;85.70;;;;;;6096992;23;19999;-70
2023/10/18 09:59:12;;;;;;;2.80;0.88;;;;;;;;;;6096955;23;20376;-69
2023/10/18 10:04:11;;;;;;;2.08;1.23;;;18.10;85.80;;;;;;6106753;23;20006;-72
2023/10/18 10:06:45;;;;;;;4.03;1.17;;;;;;;;;;6096916;23;20433;-71
2023/10/18 10:09:12;;;;;;;4.10;1.02;;;18.10;85.40;;;;;;6097159;23;20005;-73
2023/10/18 10:11:46;;;;;;;3.28;1.25;;;18.10;80.40;;;;;;6097004;23;20053;-74
2023/10/18 10:14:17;;;;;;;1.27;1.00;;;18.10;80.40;;;;;;6096910;23;20074;-71
2023/10/18 10:17:00;;;;;;;2.10;0.90;;;18.20;80.60;;;;;;6096590;23;20006;-73
2023/10/18 10:19:29;;;;;;;1.80;0.80;;;18.20;85.80;;;;;;6096546;23;20058;-70
2023/10/18 10:22:04;;;;;;;1.42;1.00;;;18.30;85.80;;;;;;6096652;23;20026;-70
2023/10/18 10:24:42;;;;;;;1.90;0.88;;;18.30;80.60;;;;;;6096435;23;20028;-70
2023/10/18 10:27:27;;;;;;;1.20;1.05;;;18.30;80.50;;;;;;6096350;23;20172;-70
2023/10/18 10:32:46;;;;;;;1.70;0.93;;;;;;;;;;6106486;23;20045;-69
2023/10/18 10:35:17;;;;;;;2.13;1.10;;;18.40;85.80;;;;;;6096284;23;20505;-69
2023/10/18 10:38:13;;;;;;;1.13;0.68;;;18.40;80.60;;;;;;6096475;23;20434;-70
2023/10/18 10:40:43;;;;;;;1.80;0.80;;;18.50;85.90;;;;;;6096039;23;20003;-69
2023/10/18 10:43:10;;;;;;;1.80;1.10;;;;;;;;;;6096325;23;20414;-69
2023/10/18 10:45:38;;;;;;;2.35;0.98;;;18.60;85.50;;;;;;6096565;23;20008;-71
2023/10/18 10:48:16;;;;;;;2.03;1.10;;;18.70;80.30;;;;;;6095922;23;20061;-68
2023/10/18 10:50:50;;;;;;;1.60;1.02;;;18.70;85.50;;;;;;6096264;23;20077;-69
2023/10/18 10:53:47;;;;;;;1.77;0.98;;;18.70;80.00;;;;;;6096443;23;20054;-68
2023/10/18 10:56:17;;;;;;;1.67;0.93;;;18.80;85.50;;;;;;6096543;23;19999;-78
2023/10/18 10:59:03;;;;;;;1.27;0.77;;;18.80;80.00;;;;;;6096468;23;20410;-73
2023/10/18 11:01:57;;;;;;;1.60;1.20;;;18.80;79.90;;;;;;6096214;23;20005;-73
2023/10/18 11:04:27;;;;;;;4.97;1.50;;;19.00;80.00;;;;;;6096107;23;20029;-73
2023/10/18 11:06:58;;;;;;;1.58;1.17;;;19.00;79.90;;;;;;6096270;23;20085;-73
2023/10/18 11:09:32;;;;;;;;;;;19.10;86.80;;;;;;6096789;23;20037;-73
2023/10/18 11:12:17;;;;;;;1.60;1.00;;;19.10;79.90;;;;;;6106057;23;19929;-73
2023/10/18 11:14:50;;;;;;;1.45;1.00;;;19.10;83.30;;;;;;6096092;23;20045;-70
2023/10/18 11:19:43;;;;;;;2.88;0.90;;;19.10;82.40;;;;;;6106017;23;20061;-70
2023/10/18 11:22:22;;;;;;;1.27;0.90;;;19.20;84.90;;;;;;6096145;23;20334;-70
2023/10/18 11:24:52;;;;;;;1.87;1.20;;;19.20;79.70;;;;;;6095933;23;20431;-70
2023/10/18 11:27:26;;;;;;;2.90;1.40;;;19.30;79.60;;;;;;6096037;23;20010;-70
2023/10/18 11:30:15;;;;;;;1.30;1.15;;;19.40;79.40;;;;;;6096131;23;19998;-70
2023/10/18 11:32:48;;;;;;;3.05;1.33;;;19.30;79.30;;;;;;6095956;23;20018;-73
2023/10/18 11:35:43;;;;;;;2.88;1.02;;;19.40;79.30;;;;;;6096110;23;20338;-73
2023/10/18 11:38:10;;;;;;;4.28;0.98;;;19.40;82.90;;;;;;6105685;23;20254;-74
2023/10/18 11:40:40;;;;;;;1.48;1.00;;;;;;;;;;6095865;23;19994;-73
2023/10/18 11:43:09;;;;;;;;;;;19.60;79.50;;;;;;6096747;23;20003;-73
2023/10/18 11:45:39;;;;;;;;;;;19.50;88.80;;;;;;6096663;23;19905;-73
2023/10/18 11:48:06;;;;;;;;;;;19.50;86.40;;;;;;6096344;23;19910;-73
2023/10/18 11:50:37;;;;;;;;;;;19.50;90.50;;;;;;6096917;23;19901;-70
2023/10/18 11:53:12;;;;;;;;;;;19.40;90.50;;;;;;6096525;23;20082;-70
2023/10/18 11:55:56;;;;;;;;;;;19.60;86.30;;;;;;6096669;23;19901;-69
2023/10/18 11:58:23;;;;;;;;;;;19.70;86.20;;;;;;6080787;23;19949;-69
2023/10/18 12:00:50;;;;;;;;;;;19.80;90.20;;;;;;6096174;23;19981;-69
2023/10/18 12:03:16;;;;;;;;;;;19.80;90.10;;;;;;6096061;23;19920;-68
2023/10/18 12:05:44;;;;;;;;;;;19.90;90.20;;;;;;6096617;23;19905;-68
2023/10/18 12:08:13;;;;;;;;;;;19.90;90.10;;;;;;6096298;23;20296;-71
2023/10/18 12:10:39;;;;;;;;;;;20.00;85.90;;;;;;6096231;23;19955;-69
2023/10/18 12:13:16;;;;;;;;;;;20.00;89.60;;;;;;6096387;23;19901;-68
2023/10/18 12:15:43;;;;;;;;;;;20.10;88.10;;;;;;6106328;23;19907;-68
2023/10/18 12:18:09;;;;;;;;;;;20.10;90.00;;;;;;6096472;23;19901;-68
2023/10/18 12:20:36;;;;;;;;;;;20.20;90.00;;;;;;6096347;23;19901;-68
2023/10/18 12:23:02;;;;;;;;;;;20.20;90.00;;;;;;6096378;23;19901;-68
2023/10/18 12:25:28;;;;;;;;;;;20.10;90.00;;;;;;6096362;23;19901;-69
2023/10/18 12:27:55;;;;;;;;;;;20.20;90.00;;;;;;6096354;23;19920;-71
2023/10/18 12:30:38;;;;;;;;;;;20.50;90.30;;;;;;6071112;23;19984;-72
2023/10/18 12:33:07;;;;;;;;;;;20.30;87.10;;;;;;6105953;23;19905;-72
2023/10/18 12:35:34;;;;;;;;;;;20.30;86.30;;;;;;6096374;23;19901;-72
2023/10/18 12:38:00;;;;;;;;;;;20.40;90.10;;;;;;6096293;23;20317;-72
2023/10/18 12:40:40;;;;;;;;;;;20.30;90.00;;;;;;6096627;23;19908;-72
2023/10/18 12:43:17;;;;;;;;;;;20.30;86.20;;;;;;6106163;23;19907;-72
2023/10/18 12:45:47;;;;;;;;;;;20.40;90.20;;;;;;6096392;23;19901;-69
2023/10/18 12:48:14;;;;;;;;;;;20.30;85.20;;;;;;6096127;23;19909;-69
2023/10/18 12:50:45;;;;;;;;;;;20.30;90.10;;;;;;6096480;23;20206;-69
2023/10/18 12:56:16;;;;;;;;;;;20.40;89.80;;;;;;6106204;23;19972;-69
2023/10/18 12:58:55;;;;;;;;;;;20.30;90.30;;;;;;6096391;23;20241;-69
2023/10/18 13:01:31;;;;;;;;;;;20.30;90.20;;;;;;6105448;23;19908;-69
2023/10/18 13:03:58;;;;;;;;;;;20.30;90.40;;;;;;6096869;23;20348;-69
2023/10/18 13:06:42;;;;;;;;;;;20.40;90.40;;;;;;6097786;23;20253;-69
2023/10/18 13:14:11;;;;;;;;;;;20.40;90.30;;;;;;6107676;23;19988;-69
2023/10/18 13:16:37;;;;;;;;;;;20.30;85.80;;;;;;6098146;23;19901;-70
2023/10/18 13:19:06;;;;;;;;;;;20.40;90.40;;;;;;6097931;23;20337;-70
2023/10/18 13:21:32;;;;;;;;;;;20.40;87.20;;;;;;6098037;23;20218;-71
2023/10/18 13:24:16;;;;;;;;;;;20.40;90.30;;;;;;6097953;23;19908;-69
2023/10/18 13:26:43;;;;;;;;;;;20.30;86.70;;;;;;6107577;23;19956;-70
2023/10/18 13:29:16;;;;;;;;;;;20.30;90.50;;;;;;6107371;23;19901;-69
2023/10/18 13:31:44;;;;;;;;;;;20.30;90.50;;;;;;6107432;23;19933;-70
2023/10/18 13:34:18;;;;;;;;;;;20.30;90.50;;;;;;6107375;23;19901;-70
2023/10/18 13:36:49;;;;;;;;;;;20.20;90.60;;;;;;6097811;23;19901;-69
2023/10/18 13:39:16;;;;;;;;;;;20.20;90.80;;;;;;6098073;23;20305;-69
2023/10/18 13:41:52;;;;;;;;;;;19.60;90.40;;;;;;6098077;23;20230;-69
2023/10/18 13:44:23;;;;;;;;;;;20.10;90.50;;;;;;6097594;23;19901;-70
2023/10/18 13:47:03;;;;;;;;;;;20.10;90.80;;;;;;6094367;23;19913;-70
2023/10/18 13:49:29;;;;;;;;;;;20.20;90.90;;;;;;6097622;23;19908;-70
2023/10/18 13:51:55;;;;;;;;;;;20.00;90.80;;;;;;6097964;23;20290;-69
2023/10/18 13:54:21;;;;;;;;;;;20.10;90.90;;;;;;6098077;23;19905;-70
2023/10/18 13:56:48;;;;;;;;;;;20.00;91.00;;;;;;6097940;23;19923;-70
2023/10/18 13:59:15;;;;;;;;;;;20.00;91.00;;;;;;6097339;23;19928;-70
2023/10/18 14:01:42;;;;;;;;;;;19.90;90.80;;;;;;6097250;23;20359;-71
2023/10/18 14:04:08;;;;;;;;;;;20.00;90.90;;;;;;6107414;23;20230;-71
2023/10/18 14:06:34;;;;;;;;;;;20.00;91.00;;;;;;6097110;23;20316;-70
2023/10/18 14:09:13;;;;;;;;;;;20.00;91.50;;;;;;6097923;23;19905;-74
2023/10/18 14:11:39;;;;;;;;;;;19.90;91.20;;;;;;6107360;23;19920;-72
2023/10/18 14:14:08;;;;;;;;;;;19.90;91.30;;;;;;6097441;23;19948;-72
2023/10/18 14:16:34;;;;;;;;;;;19.80;88.40;;;;;;6097164;23;19939;-73
2023/10/18 14:19:01;;;;;;;;;;;19.90;91.10;;;;;;6097647;23;19901;-69
2023/10/18 14:21:29;;;;;;;;;;;19.80;91.10;;;;;;6097830;23;20285;-72
2023/10/18 14:23:59;;;;;;;;;;;19.90;91.00;;;;;;6097560;23;20250;-74
2023/10/18 14:26:28;;;;;;;;;;;19.80;90.80;;;;;;6097050;23;19901;-73
2023/10/18 14:28:58;;;;;;;;;;;19.90;91.00;;;;;;6097518;23;19913;-74
2023/10/18 14:31:24;;;;;;;;;;;19.60;88.30;;;;;;6096968;23;19905;-74
2023/10/18 14:33:50;;;;;;;;;;;19.80;90.90;;;;;;6097241;23;19954;-74
2023/10/18 14:36:16;;;;;;;;;;;19.80;91.00;;;;;;6097000;23;20045;-73
2023/10/18 14:38:42;;;;;;;;;;;19.80;90.90;;;;;;6097563;23;19901;-68
2023/10/18 14:41:13;;;;;;;;;;;19.80;90.90;;;;;;6097062;23;19901;-68
2023/10/18 14:43:47;;;;;;;;;;;19.80;90.80;;;;;;6106662;23;20321;-68
2023/10/18 14:46:20;;;;;;;;;;;19.70;86.80;;;;;;6097186;23;19901;-68
2023/10/18 14:48:46;;;;;;;;;;;19.80;87.00;;;;;;6097478;23;19984;-74
2023/10/18 14:51:12;;;;;;;;;;;20.40;90.90;;;;;;6097464;23;20245;-75
2023/10/18 14:53:40;;;;;;;;;;;19.70;90.60;;;;;;6097377;23;19901;-73
2023/10/18 14:56:12;;;;;;;;;;;19.70;90.80;;;;;;6097164;23;19901;-73
2023/10/18 14:58:41;;;;;;;;;;;19.70;90.40;;;;;;6106542;23;19901;-73
2023/10/18 15:01:13;;;;;;;;;;;19.70;86.60;;;;;;6096981;23;19907;-72